sensor_id;sensor_type;location;lat;lon;timestamp;pressure;altitude;pressure_sealevel;temperature;humidity
45285;BME280;31026;43.780;25.948;2023-12-28T00:00:42;102088.28;;;18.99;57.52
45285;BME280;31026;43.780;25.948;2023-12-28T00:03:11;102080.22;;;18.99;57.04
45285;BME280;31026;43.780;25.948;2023-12-28T00:05:39;102085.31;;;19.04;57.03
45285;BME280;31026;43.780;25.948;2023-12-28T00:08:07;102073.41;;;19.21;56.64
45285;BME280;31026;43.780;25.948;2023-12-28T00:10:38;102080.63;;;19.59;55.89
45285;BME280;31026;43.780;25.948;2023-12-28T00:13:06;102083.78;;;19.78;55.21
45285;BME280;31026;43.780;25.948;2023-12-28T00:15:35;102082.91;;;19.91;54.63
45285;BME280;31026;43.780;25.948;2023-12-28T00:18:03;102082.06;;;19.90;54.66
45285;BME280;31026;43.780;25.948;2023-12-28T00:20:32;102082.56;;;20.08;54.31
45285;BME280;31026;43.780;25.948;2023-12-28T00:23:00;102085.25;;;19.95;54.70
45285;BME280;31026;43.780;25.948;2023-12-28T00:25:28;102082.22;;;19.36;56.14
45285;BME280;31026;43.780;25.948;2023-12-28T00:27:59;102086.69;;;19.10;56.65
45285;BME280;31026;43.780;25.948;2023-12-28T00:30:28;102090.66;;;19.04;57.10
45285;BME280;31026;43.780;25.948;2023-12-28T00:32:57;102096.03;;;19.04;57.03
45285;BME280;31026;43.780;25.948;2023-12-28T00:35:25;102087.53;;;18.97;57.08
45285;BME280;31026;43.780;25.948;2023-12-28T00:37:54;102071.94;;;19.42;55.84
45285;BME280;31026;43.780;25.948;2023-12-28T00:40:22;102072.69;;;19.70;55.32
45285;BME280;31026;43.780;25.948;2023-12-28T00:42:50;102072.59;;;19.84;55.07
45285;BME280;31026;43.780;25.948;2023-12-28T00:45:21;102074.75;;;19.92;54.57
45285;BME280;31026;43.780;25.948;2023-12-28T00:47:50;102078.47;;;20.02;54.54
45285;BME280;31026;43.780;25.948;2023-12-28T00:50:20;102085.44;;;20.05;54.25
45285;BME280;31026;43.780;25.948;2023-12-28T00:52:49;102099.13;;;20.02;54.58
45285;BME280;31026;43.780;25.948;2023-12-28T00:55:17;102104.78;;;19.59;55.49
45285;BME280;31026;43.780;25.948;2023-12-28T00:57:46;102111.63;;;19.24;56.54
45285;BME280;31026;43.780;25.948;2023-12-28T01:00:14;102105.47;;;19.10;56.86
45285;BME280;31026;43.780;25.948;2023-12-28T01:02:45;102104.50;;;19.11;56.91
45285;BME280;31026;43.780;25.948;2023-12-28T01:05:14;102088.63;;;19.07;56.70
45285;BME280;31026;43.780;25.948;2023-12-28T01:07:42;102116.91;;;19.52;55.73
45285;BME280;31026;43.780;25.948;2023-12-28T01:10:11;102096.19;;;19.66;55.23
45285;BME280;31026;43.780;25.948;2023-12-28T01:12:39;102100.50;;;19.95;54.51
45285;BME280;31026;43.780;25.948;2023-12-28T01:15:08;102098.88;;;20.05;54.14
45285;BME280;31026;43.780;25.948;2023-12-28T01:17:37;102104.69;;;19.99;54.59
45285;BME280;31026;43.780;25.948;2023-12-28T01:20:08;102097.59;;;20.11;53.97
45285;BME280;31026;43.780;25.948;2023-12-28T01:22:37;102106.41;;;19.48;55.39
45285;BME280;31026;43.780;25.948;2023-12-28T01:25:06;102118.25;;;19.19;56.48
45285;BME280;31026;43.780;25.948;2023-12-28T01:27:34;102112.22;;;19.15;56.67
45285;BME280;31026;43.780;25.948;2023-12-28T01:30:03;102112.22;;;19.15;56.73
45285;BME280;31026;43.780;25.948;2023-12-28T01:32:31;102086.69;;;19.10;56.55
45285;BME280;31026;43.780;25.948;2023-12-28T01:34:59;102106.72;;;19.57;55.54
45285;BME280;31026;43.780;25.948;2023-12-28T01:37:30;102096.84;;;19.44;55.50
45285;BME280;31026;43.780;25.948;2023-12-28T01:39:59;102096.78;;;19.06;56.46
45285;BME280;31026;43.780;25.948;2023-12-28T01:42:27;102106.34;;;18.83;56.99
45285;BME280;31026;43.780;25.948;2023-12-28T01:44:57;102103.75;;;19.08;56.54
45285;BME280;31026;43.780;25.948;2023-12-28T01:47:25;102091.16;;;19.49;55.38
45285;BME280;31026;43.780;25.948;2023-12-28T01:49:54;102094.47;;;19.53;55.47
45285;BME280;31026;43.780;25.948;2023-12-28T01:52:22;102082.47;;;19.58;55.20
45285;BME280;31026;43.780;25.948;2023-12-28T01:54:53;102073.75;;;19.29;55.83
45285;BME280;31026;43.780;25.948;2023-12-28T01:57:22;102083.00;;;18.98;56.82
45285;BME280;31026;43.780;25.948;2023-12-28T01:59:50;102097.81;;;18.91;56.84
45285;BME280;31026;43.780;25.948;2023-12-28T02:02:19;102094.06;;;18.93;56.99
45285;BME280;31026;43.780;25.948;2023-12-28T02:04:49;102093.75;;;18.98;56.87
45285;BME280;31026;43.780;25.948;2023-12-28T02:07:17;102092.19;;;19.08;56.43
45285;BME280;31026;43.780;25.948;2023-12-28T02:09:46;102094.47;;;19.53;55.32
45285;BME280;31026;43.780;25.948;2023-12-28T02:12:17;102075.47;;;19.68;54.97
45285;BME280;31026;43.780;25.948;2023-12-28T02:14:46;102093.88;;;19.88;54.67
45285;BME280;31026;43.780;25.948;2023-12-28T02:17:15;102082.69;;;19.94;54.16
45285;BME280;31026;43.780;25.948;2023-12-28T02:19:45;102088.44;;;20.13;53.81
45285;BME280;31026;43.780;25.948;2023-12-28T02:22:15;102080.97;;;20.05;54.01
45285;BME280;31026;43.780;25.948;2023-12-28T02:27:29;102097.13;;;19.27;55.74
45285;BME280;31026;43.780;25.948;2023-12-28T02:29:58;102096.56;;;19.09;56.37
45285;BME280;31026;43.780;25.948;2023-12-28T02:32:31;102089.38;;;19.10;56.35
45285;BME280;31026;43.780;25.948;2023-12-28T02:35:01;102085.84;;;19.09;56.33
45285;BME280;31026;43.780;25.948;2023-12-28T02:37:34;102086.09;;;19.44;55.37
45285;BME280;31026;43.780;25.948;2023-12-28T02:40:03;102082.13;;;19.63;54.79
45285;BME280;31026;43.780;25.948;2023-12-28T02:42:34;102068.19;;;19.83;54.56
45285;BME280;31026;43.780;25.948;2023-12-28T02:45:03;102065.50;;;19.96;54.05
45285;BME280;31026;43.780;25.948;2023-12-28T02:47:31;102065.91;;;20.03;53.84
45285;BME280;31026;43.780;25.948;2023-12-28T02:49:59;102051.53;;;20.04;54.05
45285;BME280;31026;43.780;25.948;2023-12-28T02:52:28;102051.59;;;20.15;53.54
45285;BME280;31026;43.780;25.948;2023-12-28T02:54:56;102058.63;;;19.79;54.28
45285;BME280;31026;43.780;25.948;2023-12-28T02:57:24;102075.16;;;19.22;55.52
45285;BME280;31026;43.780;25.948;2023-12-28T02:59:55;102079.63;;;19.08;56.15
45285;BME280;31026;43.780;25.948;2023-12-28T03:02:28;102084.13;;;19.08;56.25
45285;BME280;31026;43.780;25.948;2023-12-28T03:04:56;102077.91;;;19.07;56.28
45285;BME280;31026;43.780;25.948;2023-12-28T03:07:25;102092.13;;;19.48;55.29
45285;BME280;31026;43.780;25.948;2023-12-28T03:09:53;102081.19;;;19.64;54.65
45285;BME280;31026;43.780;25.948;2023-12-28T03:12:21;102081.53;;;19.72;54.67
45285;BME280;31026;43.780;25.948;2023-12-28T03:14:50;102078.38;;;19.91;54.13
45285;BME280;31026;43.780;25.948;2023-12-28T03:17:21;102067.63;;;20.04;53.87
45285;BME280;31026;43.780;25.948;2023-12-28T03:19:49;102066.66;;;20.05;53.61
45285;BME280;31026;43.780;25.948;2023-12-28T03:22:18;102069.13;;;20.08;53.44
45285;BME280;31026;43.780;25.948;2023-12-28T03:24:46;102074.41;;;19.45;55.10
45285;BME280;31026;43.780;25.948;2023-12-28T03:27:15;102073.00;;;19.14;55.94
45285;BME280;31026;43.780;25.948;2023-12-28T03:29:43;102084.34;;;19.05;56.24
45285;BME280;31026;43.780;25.948;2023-12-28T03:32:11;102074.69;;;19.02;56.38
45285;BME280;31026;43.780;25.948;2023-12-28T03:34:42;102064.63;;;19.06;56.05
45285;BME280;31026;43.780;25.948;2023-12-28T03:37:11;102072.16;;;19.52;55.17
45285;BME280;31026;43.780;25.948;2023-12-28T03:39:39;102076.69;;;19.77;54.54
45285;BME280;31026;43.780;25.948;2023-12-28T03:42:07;102068.09;;;19.98;53.75
45285;BME280;31026;43.780;25.948;2023-12-28T03:44:36;102071.72;;;19.97;53.73
45285;BME280;31026;43.780;25.948;2023-12-28T03:47:04;102067.63;;;20.04;53.63
45285;BME280;31026;43.780;25.948;2023-12-28T03:49:32;102086.75;;;20.12;53.40
45285;BME280;31026;43.780;25.948;2023-12-28T03:52:03;102100.09;;;19.75;54.07
45285;BME280;31026;43.780;25.948;2023-12-28T03:54:32;102117.22;;;19.34;55.42
45285;BME280;31026;43.780;25.948;2023-12-28T03:57:00;102092.47;;;19.03;55.97
45285;BME280;31026;43.780;25.948;2023-12-28T03:59:28;102088.28;;;18.99;56.17
45285;BME280;31026;43.780;25.948;2023-12-28T04:01:57;102090.66;;;18.77;56.68
45285;BME280;31026;43.780;25.948;2023-12-28T04:04:25;102081.94;;;18.73;56.75
45285;BME280;31026;43.780;25.948;2023-12-28T04:06:53;102080.19;;;18.59;56.87
45285;BME280;31026;43.780;25.948;2023-12-28T04:09:24;102098.22;;;18.43;57.60
45285;BME280;31026;43.780;25.948;2023-12-28T04:11:53;102100.94;;;18.28;57.58
45285;BME280;31026;43.780;25.948;2023-12-28T04:14:21;102091.16;;;18.27;57.69
45285;BME280;31026;43.780;25.948;2023-12-28T04:16:49;102089.94;;;18.19;57.79
45285;BME280;31026;43.780;25.948;2023-12-28T04:19:17;102104.50;;;18.15;57.89
45285;BME280;31026;43.780;25.948;2023-12-28T04:21:46;102075.91;;;18.15;57.61
45285;BME280;31026;43.780;25.948;2023-12-28T04:24:14;102120.25;;;18.19;57.83
45285;BME280;31026;43.780;25.948;2023-12-28T04:26:45;102099.91;;;18.17;57.63
45285;BME280;31026;43.780;25.948;2023-12-28T04:29:13;102124.09;;;18.15;57.51
45285;BME280;31026;43.780;25.948;2023-12-28T04:31:42;102095.19;;;18.06;57.67
45285;BME280;31026;43.780;25.948;2023-12-28T04:34:11;102108.50;;;18.07;57.70
45285;BME280;31026;43.780;25.948;2023-12-28T04:36:39;102111.09;;;18.09;57.71
45285;BME280;31026;43.780;25.948;2023-12-28T04:39:08;102111.25;;;18.06;57.76
45285;BME280;31026;43.780;25.948;2023-12-28T04:41:36;102089.38;;;17.99;57.87
45285;BME280;31026;43.780;25.948;2023-12-28T04:44:07;102111.56;;;18.01;57.57
45285;BME280;31026;43.780;25.948;2023-12-28T04:46:37;102095.81;;;17.97;57.84
45285;BME280;31026;43.780;25.948;2023-12-28T04:49:06;102104.38;;;18.02;57.66
45285;BME280;31026;43.780;25.948;2023-12-28T04:51:34;102090.16;;;17.87;57.83
45285;BME280;31026;43.780;25.948;2023-12-28T04:54:03;102085.50;;;17.91;58.00
45285;BME280;31026;43.780;25.948;2023-12-28T04:56:31;102106.91;;;17.91;57.72
45285;BME280;31026;43.780;25.948;2023-12-28T04:58:59;102076.88;;;17.85;58.17
45285;BME280;31026;43.780;25.948;2023-12-28T05:01:30;102077.25;;;17.94;58.14
45285;BME280;31026;43.780;25.948;2023-12-28T05:03:58;102082.97;;;18.02;57.88
45285;BME280;31026;43.780;25.948;2023-12-28T05:06:27;102085.66;;;17.87;58.27
45285;BME280;31026;43.780;25.948;2023-12-28T05:08:55;102078.88;;;17.96;57.99
45285;BME280;31026;43.780;25.948;2023-12-28T05:11:24;102094.06;;;17.96;57.89
45285;BME280;31026;43.780;25.948;2023-12-28T05:13:52;102086.03;;;17.96;57.68
45285;BME280;31026;43.780;25.948;2023-12-28T05:16:21;102082.22;;;17.85;57.67
45285;BME280;31026;43.780;25.948;2023-12-28T05:18:52;102086.59;;;17.86;57.66
45285;BME280;31026;43.780;25.948;2023-12-28T05:21:20;102089.28;;;17.86;57.50
45285;BME280;31026;43.780;25.948;2023-12-28T05:23:48;102090.16;;;17.87;57.77
45285;BME280;31026;43.780;25.948;2023-12-28T05:26:17;102094.13;;;17.80;57.71
45285;BME280;31026;43.780;25.948;2023-12-28T05:28:45;102096.19;;;17.91;57.92
45285;BME280;31026;43.780;25.948;2023-12-28T05:31:14;102089.91;;;18.33;56.98
45285;BME280;31026;43.780;25.948;2023-12-28T05:33:42;102070.22;;;18.20;57.03
45285;BME280;31026;43.780;25.948;2023-12-28T05:36:13;102076.88;;;17.85;57.95
45285;BME280;31026;43.780;25.948;2023-12-28T05:38:42;102069.69;;;18.00;57.69
45285;BME280;31026;43.780;25.948;2023-12-28T05:41:10;102080.50;;;17.84;57.80
45285;BME280;31026;43.780;25.948;2023-12-28T05:43:38;102075.50;;;17.78;58.05
45285;BME280;31026;43.780;25.948;2023-12-28T05:46:06;102082.38;;;17.82;57.73
45285;BME280;31026;43.780;25.948;2023-12-28T05:48:35;102075.50;;;17.78;57.61
45285;BME280;31026;43.780;25.948;2023-12-28T05:51:03;102086.81;;;17.83;57.69
45285;BME280;31026;43.780;25.948;2023-12-28T05:53:34;102091.53;;;17.78;57.66
45285;BME280;31026;43.780;25.948;2023-12-28T05:56:03;102079.13;;;17.77;57.71
45285;BME280;31026;43.780;25.948;2023-12-28T05:58:31;102086.50;;;18.17;56.98
45285;BME280;31026;43.780;25.948;2023-12-28T06:01:00;102078.09;;;18.23;56.59
45285;BME280;31026;43.780;25.948;2023-12-28T06:03:30;102086.03;;;17.96;57.50
45285;BME280;31026;43.780;25.948;2023-12-28T06:05:58;102073.22;;;17.86;57.67
45285;BME280;31026;43.780;25.948;2023-12-28T06:08:26;102069.44;;;17.91;57.44
45285;BME280;31026;43.780;25.948;2023-12-28T06:10:57;102080.84;;;17.78;57.73
45285;BME280;31026;43.780;25.948;2023-12-28T06:13:26;102074.34;;;17.82;57.42
45285;BME280;31026;43.780;25.948;2023-12-28T06:15:54;102078.06;;;17.80;57.58
45285;BME280;31026;43.780;25.948;2023-12-28T06:18:22;102093.28;;;17.79;57.50
45285;BME280;31026;43.780;25.948;2023-12-28T06:20:50;102080.06;;;17.76;57.56
45285;BME280;31026;43.780;25.948;2023-12-28T06:23:19;102066.53;;;17.79;57.65
45285;BME280;31026;43.780;25.948;2023-12-28T06:25:47;102082.69;;;18.48;56.28
45285;BME280;31026;43.780;25.948;2023-12-28T06:28:18;102066.13;;;18.28;56.61
45285;BME280;31026;43.780;25.948;2023-12-28T06:30:46;102071.88;;;18.08;57.30
45285;BME280;31026;43.780;25.948;2023-12-28T06:33:14;102080.22;;;18.03;56.92
45285;BME280;31026;43.780;25.948;2023-12-28T06:35:43;102070.56;;;17.86;57.54
45285;BME280;31026;43.780;25.948;2023-12-28T06:38:11;102079.81;;;17.81;57.66
45285;BME280;31026;43.780;25.948;2023-12-28T06:40:39;102078.06;;;17.80;57.55
45285;BME280;31026;43.780;25.948;2023-12-28T06:43:08;102078.78;;;17.83;57.59
45285;BME280;31026;43.780;25.948;2023-12-28T06:45:39;102068.81;;;17.71;57.83
45285;BME280;31026;43.780;25.948;2023-12-28T06:48:07;102083.34;;;17.67;58.23
45285;BME280;31026;43.780;25.948;2023-12-28T06:50:35;102083.59;;;17.62;58.31
45285;BME280;31026;43.780;25.948;2023-12-28T06:53:04;102078.06;;;17.80;58.00
45285;BME280;31026;43.780;25.948;2023-12-28T06:55:32;102080.50;;;17.84;57.56
45285;BME280;31026;43.780;25.948;2023-12-28T06:58:00;102074.78;;;17.91;57.44
45285;BME280;31026;43.780;25.948;2023-12-28T07:00:28;102072.81;;;17.78;57.04
45285;BME280;31026;43.780;25.948;2023-12-28T07:02:59;102068.22;;;17.80;57.59
45285;BME280;31026;43.780;25.948;2023-12-28T07:05:28;102071.44;;;18.43;56.19
45285;BME280;31026;43.780;25.948;2023-12-28T07:07:56;102074.47;;;18.51;56.11
45285;BME280;31026;43.780;25.948;2023-12-28T07:10:24;102079.69;;;18.25;56.59
45285;BME280;31026;43.780;25.948;2023-12-28T07:12:53;102073.41;;;18.12;57.05
45285;BME280;31026;43.780;25.948;2023-12-28T07:15:21;102073.78;;;18.06;56.99
45285;BME280;31026;43.780;25.948;2023-12-28T07:17:50;102066.06;;;18.01;57.41
45285;BME280;31026;43.780;25.948;2023-12-28T07:20:21;102066.84;;;17.89;57.72
45285;BME280;31026;43.780;25.948;2023-12-28T07:22:49;102079.56;;;17.85;57.60
45285;BME280;31026;43.780;25.948;2023-12-28T07:25:18;102069.31;;;17.92;57.37
45285;BME280;31026;43.780;25.948;2023-12-28T07:27:46;102071.97;;;17.78;57.79
45285;BME280;31026;43.780;25.948;2023-12-28T07:30:15;102067.84;;;17.72;57.93
45285;BME280;31026;43.780;25.948;2023-12-28T07:32:44;102085.88;;;17.99;57.78
45285;BME280;31026;43.780;25.948;2023-12-28T07:35:12;102064.22;;;18.31;56.73
45285;BME280;31026;43.780;25.948;2023-12-28T07:37:43;102072.88;;;18.48;56.21
45285;BME280;31026;43.780;25.948;2023-12-28T07:40:12;102062.69;;;18.54;56.19
45285;BME280;31026;43.780;25.948;2023-12-28T07:42:41;102075.03;;;18.56;56.38
45285;BME280;31026;43.780;25.948;2023-12-28T07:45:09;102093.03;;;18.40;56.56
45285;BME280;31026;43.780;25.948;2023-12-28T07:47:37;102078.00;;;18.24;56.75
45285;BME280;31026;43.780;25.948;2023-12-28T07:50:06;102078.75;;;18.12;57.34
45285;BME280;31026;43.780;25.948;2023-12-28T07:52:36;102083.81;;;18.02;57.64
45285;BME280;31026;43.780;25.948;2023-12-28T07:55:07;102097.50;;;17.98;57.53
45285;BME280;31026;43.780;25.948;2023-12-28T07:57:35;102080.31;;;17.87;57.83
45285;BME280;31026;43.780;25.948;2023-12-28T08:00:04;102084.28;;;17.80;58.17
45285;BME280;31026;43.780;25.948;2023-12-28T08:02:33;102077.31;;;17.78;58.06
45285;BME280;31026;43.780;25.948;2023-12-28T08:05:02;102090.41;;;17.82;57.92
45285;BME280;31026;43.780;25.948;2023-12-28T08:07:30;102091.84;;;17.74;58.02
45285;BME280;31026;43.780;25.948;2023-12-28T08:09:58;102091.94;;;17.72;58.21
45285;BME280;31026;43.780;25.948;2023-12-28T08:12:30;102081.22;;;17.72;58.23
45285;BME280;31026;43.780;25.948;2023-12-28T08:14:58;102087.66;;;17.84;58.05
45285;BME280;31026;43.780;25.948;2023-12-28T08:17:27;102090.25;;;17.85;58.04
45285;BME280;31026;43.780;25.948;2023-12-28T08:19:55;102073.44;;;17.83;58.12
45285;BME280;31026;43.780;25.948;2023-12-28T08:22:23;102079.47;;;17.87;57.90
45285;BME280;31026;43.780;25.948;2023-12-28T08:24:53;102069.66;;;17.72;58.29
45285;BME280;31026;43.780;25.948;2023-12-28T08:27:21;102080.84;;;17.78;58.31
45285;BME280;31026;43.780;25.948;2023-12-28T08:29:52;102094.81;;;18.12;57.70
45285;BME280;31026;43.780;25.948;2023-12-28T08:32:20;102080.16;;;18.32;57.22
45285;BME280;31026;43.780;25.948;2023-12-28T08:34:49;102070.91;;;18.23;57.34
45285;BME280;31026;43.780;25.948;2023-12-28T08:37:17;102105.03;;;18.20;57.42
45285;BME280;31026;43.780;25.948;2023-12-28T08:39:45;102072.63;;;18.10;57.56
45285;BME280;31026;43.780;25.948;2023-12-28T08:42:14;102096.72;;;18.10;57.79
45285;BME280;31026;43.780;25.948;2023-12-28T08:44:42;102090.25;;;18.00;57.70
45285;BME280;31026;43.780;25.948;2023-12-28T08:47:13;102073.81;;;17.92;58.02
45285;BME280;31026;43.780;25.948;2023-12-28T08:49:41;102064.09;;;17.91;57.96
45285;BME280;31026;43.780;25.948;2023-12-28T08:52:10;102076.31;;;17.95;58.06
45285;BME280;31026;43.780;25.948;2023-12-28T08:54:38;102063.88;;;17.94;57.94
45285;BME280;31026;43.780;25.948;2023-12-28T08:57:08;102061.41;;;17.91;58.07
45285;BME280;31026;43.780;25.948;2023-12-28T08:59:36;102062.16;;;17.93;58.15
45285;BME280;31026;43.780;25.948;2023-12-28T09:02:04;102058.50;;;17.94;57.91
45285;BME280;31026;43.780;25.948;2023-12-28T09:04:35;102047.63;;;17.97;58.06
45285;BME280;31026;43.780;25.948;2023-12-28T09:07:04;102047.63;;;17.97;58.06
45285;BME280;31026;43.780;25.948;2023-12-28T09:09:32;102044.69;;;18.28;57.42
45285;BME280;31026;43.780;25.948;2023-12-28T09:12:00;102047.28;;;18.57;56.95
45285;BME280;31026;43.780;25.948;2023-12-28T09:14:29;102040.22;;;18.56;56.60
45285;BME280;31026;43.780;25.948;2023-12-28T09:16:57;102035.47;;;18.47;56.94
45285;BME280;31026;43.780;25.948;2023-12-28T09:19:25;102026.50;;;18.34;57.16
45285;BME280;31026;43.780;25.948;2023-12-28T09:21:56;102052.53;;;18.32;57.40
45285;BME280;31026;43.780;25.948;2023-12-28T09:24:25;102012.00;;;18.23;57.51
45285;BME280;31026;43.780;25.948;2023-12-28T09:26:53;102019.69;;;18.15;57.61
45285;BME280;31026;43.780;25.948;2023-12-28T09:29:21;102008.19;;;18.13;57.84
45285;BME280;31026;43.780;25.948;2023-12-28T09:31:50;102003.16;;;18.08;57.79
45285;BME280;31026;43.780;25.948;2023-12-28T09:34:18;102004.88;;;18.09;57.95
45285;BME280;31026;43.780;25.948;2023-12-28T09:36:46;101998.66;;;18.09;58.04
45285;BME280;31026;43.780;25.948;2023-12-28T09:39:17;101996.16;;;18.06;57.86
45285;BME280;31026;43.780;25.948;2023-12-28T09:41:47;101967.69;;;18.05;57.90
45285;BME280;31026;43.780;25.948;2023-12-28T09:44:17;101983.19;;;18.00;58.08
45285;BME280;31026;43.780;25.948;2023-12-28T09:46:46;101982.03;;;18.04;58.04
45285;BME280;31026;43.780;25.948;2023-12-28T09:49:15;101978.09;;;18.09;57.95
45285;BME280;31026;43.780;25.948;2023-12-28T09:51:43;101967.88;;;18.02;58.11
45285;BME280;31026;43.780;25.948;2023-12-28T09:54:14;101961.59;;;18.03;58.13
45285;BME280;31026;43.780;25.948;2023-12-28T09:56:46;101967.34;;;17.97;58.25
45285;BME280;31026;43.780;25.948;2023-12-28T09:59:14;101953.28;;;17.93;58.26
45285;BME280;31026;43.780;25.948;2023-12-28T10:01:45;101950.13;;;17.86;58.75
45285;BME280;31026;43.780;25.948;2023-12-28T10:04:13;101962.66;;;17.86;58.46
45285;BME280;31026;43.780;25.948;2023-12-28T10:06:43;101940.97;;;17.91;58.66
45285;BME280;31026;43.780;25.948;2023-12-28T10:09:11;101940.56;;;17.97;58.46
45285;BME280;31026;43.780;25.948;2023-12-28T10:11:39;101938.53;;;18.00;58.09
45285;BME280;31026;43.780;25.948;2023-12-28T10:14:11;101953.06;;;18.11;58.07
45285;BME280;31026;43.780;25.948;2023-12-28T10:16:40;101940.75;;;17.94;58.30
45285;BME280;31026;43.780;25.948;2023-12-28T10:19:08;101940.16;;;18.03;58.18
45285;BME280;31026;43.780;25.948;2023-12-28T10:21:38;101930.97;;;18.07;58.02
45285;BME280;31026;43.780;25.948;2023-12-28T10:24:09;101907.38;;;17.99;58.65
45285;BME280;31026;43.780;25.948;2023-12-28T10:26:38;101903.78;;;18.40;57.48
45285;BME280;31026;43.780;25.948;2023-12-28T10:29:07;101903.03;;;18.64;56.86
45285;BME280;31026;43.780;25.948;2023-12-28T10:31:38;101886.13;;;18.51;57.24
45285;BME280;31026;43.780;25.948;2023-12-28T10:34:09;101886.53;;;18.44;57.27
45285;BME280;31026;43.780;25.948;2023-12-28T10:36:37;101880.94;;;18.35;57.42
45285;BME280;31026;43.780;25.948;2023-12-28T10:39:06;101877.94;;;18.26;57.72
45285;BME280;31026;43.780;25.948;2023-12-28T10:41:36;101878.88;;;18.25;57.79
45285;BME280;31026;43.780;25.948;2023-12-28T10:44:05;101873.44;;;18.27;57.57
45285;BME280;31026;43.780;25.948;2023-12-28T10:46:33;101878.03;;;18.25;57.88
45285;BME280;31026;43.780;25.948;2023-12-28T10:49:10;101872.56;;;18.26;57.88
45285;BME280;31026;43.780;25.948;2023-12-28T10:51:40;101857.78;;;18.21;57.95
45285;BME280;31026;43.780;25.948;2023-12-28T10:54:11;101847.25;;;18.18;57.80
45285;BME280;31026;43.780;25.948;2023-12-28T10:56:42;101844.16;;;18.24;57.94
45285;BME280;31026;43.780;25.948;2023-12-28T10:59:15;101832.81;;;18.20;57.89
45285;BME280;31026;43.780;25.948;2023-12-28T11:01:46;101838.28;;;18.19;57.97
45285;BME280;31026;43.780;25.948;2023-12-28T11:04:19;101840.84;;;18.20;57.94
45285;BME280;31026;43.780;25.948;2023-12-28T11:06:50;101828.63;;;18.16;57.95
45285;BME280;31026;43.780;25.948;2023-12-28T11:09:19;101832.28;;;18.15;58.16
45285;BME280;31026;43.780;25.948;2023-12-28T11:11:49;101836.66;;;18.16;58.19
45285;BME280;31026;43.780;25.948;2023-12-28T11:14:17;101822.75;;;18.11;58.20
45285;BME280;31026;43.780;25.948;2023-12-28T11:16:46;101814.91;;;18.08;58.00
45285;BME280;31026;43.780;25.948;2023-12-28T11:19:14;101807.09;;;18.05;58.37
45285;BME280;31026;43.780;25.948;2023-12-28T11:21:45;101809.13;;;18.01;58.50
45285;BME280;31026;43.780;25.948;2023-12-28T11:24:14;101804.63;;;18.02;58.19
45285;BME280;31026;43.780;25.948;2023-12-28T11:26:43;101798.09;;;18.06;58.34
45285;BME280;31026;43.780;25.948;2023-12-28T11:29:11;101803.66;;;18.03;58.27
45285;BME280;31026;43.780;25.948;2023-12-28T11:31:40;101804.84;;;17.99;58.45
45285;BME280;31026;43.780;25.948;2023-12-28T11:34:08;101777.66;;;17.78;58.49
45285;BME280;31026;43.780;25.948;2023-12-28T11:36:46;101812.66;;;18.02;58.49
45285;BME280;31026;43.780;25.948;2023-12-28T11:39:20;101809.97;;;18.02;58.37
45285;BME280;31026;43.780;25.948;2023-12-28T11:41:48;101806.53;;;18.00;58.38
45285;BME280;31026;43.780;25.948;2023-12-28T11:44:17;101803.66;;;18.03;58.34
45285;BME280;31026;43.780;25.948;2023-12-28T11:46:45;101808.69;;;17.95;58.47
45285;BME280;31026;43.780;25.948;2023-12-28T11:49:14;101798.59;;;17.98;58.82
45285;BME280;31026;43.780;25.948;2023-12-28T11:51:42;101780.22;;;18.32;58.08
45285;BME280;31026;43.780;25.948;2023-12-28T11:54:13;101787.53;;;18.43;57.63
45285;BME280;31026;43.780;25.948;2023-12-28T11:56:41;101778.44;;;18.33;57.81
45285;BME280;31026;43.780;25.948;2023-12-28T11:59:10;101799.94;;;18.18;58.14
45285;BME280;31026;43.780;25.948;2023-12-28T12:01:38;101776.56;;;18.07;58.17
45285;BME280;31026;43.780;25.948;2023-12-28T12:04:06;101778.50;;;18.05;58.24
45285;BME280;31026;43.780;25.948;2023-12-28T12:06:35;101776.09;;;17.88;58.61
45285;BME280;31026;43.780;25.948;2023-12-28T12:09:03;101776.00;;;17.89;58.89
45285;BME280;31026;43.780;25.948;2023-12-28T12:11:34;101771.06;;;17.83;58.65
45285;BME280;31026;43.780;25.948;2023-12-28T12:14:03;101761.13;;;17.85;58.87
45285;BME280;31026;43.780;25.948;2023-12-28T12:16:35;101779.44;;;17.92;58.73
45285;BME280;31026;43.780;25.948;2023-12-28T12:19:04;101776.00;;;17.89;58.60
45285;BME280;31026;43.780;25.948;2023-12-28T12:21:33;101763.56;;;17.88;58.74
45285;BME280;31026;43.780;25.948;2023-12-28T12:24:01;101729.97;;;17.84;58.60
45285;BME280;31026;43.780;25.948;2023-12-28T12:26:30;101736.28;;;17.83;58.77
45285;BME280;31026;43.780;25.948;2023-12-28T12:29:04;101755.94;;;17.82;58.83
45285;BME280;31026;43.780;25.948;2023-12-28T12:31:32;101730.94;;;17.83;58.66
45285;BME280;31026;43.780;25.948;2023-12-28T12:34:02;101747.16;;;17.80;58.97
45285;BME280;31026;43.780;25.948;2023-12-28T12:36:31;101734.41;;;17.71;59.17
45285;BME280;31026;43.780;25.948;2023-12-28T12:38:59;101737.59;;;17.91;58.79
45285;BME280;31026;43.780;25.948;2023-12-28T12:41:28;101742.13;;;18.28;58.06
45285;BME280;31026;43.780;25.948;2023-12-28T12:43:56;101732.56;;;18.12;58.32
45285;BME280;31026;43.780;25.948;2023-12-28T12:46:28;101733.84;;;18.06;58.56
45285;BME280;31026;43.780;25.948;2023-12-28T12:48:56;101722.41;;;17.91;58.59
45285;BME280;31026;43.780;25.948;2023-12-28T12:51:25;101723.44;;;17.88;58.66